Time;durP1;ratioP1;P1;durP2;ratioP2;P2;SDS_P1;SDS_P2;PMS_P1;PMS_P2;Temp;Humidity;BMP_temperature;BMP_pressure;BME280_temperature;BME280_humidity;BME280_pressure;Samples;Min_cycle;Max_cycle;Signal;HPM_P1;HPM_P2
2021/05/17 00:00:48;;;;;;;5.53;3.77;;;9.70;98.60;;;;;;5093179;27;20481;-72
2021/05/17 00:03:17;;;;;;;5.53;3.70;;;9.90;99.90;;;;;;5103038;27;20188;-73
2021/05/17 00:05:43;;;;;;;5.57;4.23;;;9.70;52.10;;;;;;5098870;27;20781;-72
2021/05/17 00:08:09;;;;;;;6.43;3.90;;;9.70;99.90;;;;;;5083920;27;20438;-73
2021/05/17 00:10:35;;;;;;;4.50;3.83;;;9.60;99.90;;;;;;5100942;27;20829;-73
2021/05/17 00:13:02;;;;;;;8.10;3.77;;;9.50;99.90;;;;;;5098696;27;20434;-73
2021/05/17 00:15:28;;;;;;;5.73;4.10;;;9.40;99.90;;;;;;5097490;27;20439;-72
2021/05/17 00:17:55;;;;;;;7.00;4.13;;;9.40;99.90;;;;;;5098716;27;20469;-73
2021/05/17 00:20:22;;;;;;;5.10;3.77;;;9.30;99.90;;;;;;5097449;27;20188;-72
2021/05/17 00:22:48;;;;;;;6.07;3.83;;;9.50;99.90;;;;;;5097161;27;20433;-72
2021/05/17 00:25:15;;;;;;;5.53;3.87;;;9.50;99.90;;;;;;5097339;27;21181;-72
2021/05/17 00:27:42;;;;;;;4.77;3.50;;;9.80;99.90;;;;;;5098471;27;20443;-72
2021/05/17 00:30:09;;;;;;;4.90;3.93;;;9.70;33.20;;;;;;5100288;27;20464;-72
2021/05/17 00:32:36;;;;;;;4.13;3.60;;;9.70;31.70;;;;;;5079548;27;20529;-73
2021/05/17 00:35:03;;;;;;;2.83;2.47;;;9.70;27.50;;;;;;5099201;27;20755;-72
2021/05/17 00:37:29;;;;;;;10.13;3.00;;;9.90;99.90;;;;;;5100327;27;20438;-72
2021/05/17 00:39:55;;;;;;;3.90;2.80;;;10.10;4.40;;;;;;5097925;27;20806;-72
2021/05/17 00:42:21;;;;;;;6.43;3.10;;;10.50;1.00;;;;;;5101548;27;20302;-72
2021/05/17 00:44:47;;;;;;;4.43;3.90;;;10.20;1.00;;;;;;5103752;27;20902;-72
2021/05/17 00:47:15;;;;;;;3.33;2.87;;;10.30;1.00;;;;;;5046552;27;20440;-72
2021/05/17 00:49:44;;;;;;;3.90;3.00;;;10.10;1.00;;;;;;5075607;27;20852;-72
2021/05/17 00:52:11;;;;;;;7.90;3.27;;;10.40;1.00;;;;;;5076109;27;20465;-72
2021/05/17 00:54:37;;;;;;;4.00;3.33;;;10.30;1.00;;;;;;5078158;27;20458;-73
2021/05/17 00:57:04;;;;;;;4.00;3.10;;;10.10;1.00;;;;;;5082158;27;20435;-72
2021/05/17 00:59:34;;;;;;;3.77;3.20;;;10.00;1.00;;;;;;5078635;27;20564;-72
2021/05/17 01:02:00;;;;;;;3.67;3.10;;;10.30;1.00;;;;;;5083329;27;20442;-72
2021/05/17 01:04:46;;;;;;;4.80;2.90;;;10.00;1.00;;;;;;5098272;27;20562;-72
2021/05/17 01:07:13;;;;;;;6.03;3.20;;;9.70;1.00;;;;;;5096398;27;21489;-72
2021/05/17 01:09:41;;;;;;;9.03;2.93;;;9.70;1.00;;;;;;5098312;27;20278;-72
2021/05/17 01:12:08;;;;;;;3.73;2.73;;;9.90;1.00;;;;;;5096685;27;20467;-74
2021/05/17 01:14:34;;;;;;;3.17;2.67;;;10.10;1.00;;;;;;5095913;27;20448;-72
2021/05/17 01:17:01;;;;;;;2.70;2.10;;;10.10;1.00;;;;;;5088548;27;20439;-72
2021/05/17 01:19:40;;;;;;;3.10;2.60;;;10.40;1.00;;;;;;5089993;27;21075;-72
2021/05/17 01:22:10;;;;;;;2.33;1.87;;;10.80;1.00;;;;;;5084677;27;20608;-72
2021/05/17 01:24:39;;;;;;;4.53;2.53;;;10.60;1.00;;;;;;5076284;27;20475;-72
2021/05/17 01:27:07;;;;;;;4.40;3.83;;;10.30;1.00;;;;;;5096528;27;20443;-72
2021/05/17 01:29:33;;;;;;;4.67;3.50;;;10.40;1.00;;;;;;5097389;27;20959;-72
2021/05/17 01:32:00;;;;;;;2.83;2.63;;;10.60;1.00;;;;;;5098751;27;20443;-72
2021/05/17 01:34:26;;;;;;;3.80;2.77;;;10.60;1.00;;;;;;5074100;27;20452;-72
2021/05/17 01:36:53;;;;;;;5.93;3.27;;;10.80;1.00;;;;;;5079446;27;21106;-72
2021/05/17 01:39:24;;;;;;;4.37;3.10;;;10.60;1.00;;;;;;5094525;27;20433;-72
2021/05/17 01:41:52;;;;;;;5.23;3.00;;;10.60;1.00;;;;;;5083006;27;20438;-72
2021/05/17 01:44:23;;;;;;;7.57;2.43;;;10.60;1.00;;;;;;5096137;27;20477;-72
2021/05/17 01:46:51;;;;;;;3.43;2.73;;;10.80;1.00;;;;;;5080075;27;20445;-72
2021/05/17 01:49:18;;;;;;;4.93;3.10;;;10.50;1.00;;;;;;5078845;27;20442;-71
2021/05/17 01:51:48;;;;;;;3.17;2.47;;;10.70;1.00;;;;;;5075124;27;20853;-72
2021/05/17 01:54:17;;;;;;;2.93;2.50;;;10.80;1.00;;;;;;5077030;27;20459;-72
2021/05/17 01:56:45;;;;;;;2.90;2.30;;;10.70;1.00;;;;;;5093826;27;20813;-72
2021/05/17 01:59:28;;;;;;;2.73;2.07;;;10.60;1.00;;;;;;5079240;27;20459;-71
2021/05/17 02:01:54;;;;;;;3.20;2.40;;;10.80;1.00;;;;;;5095512;27;20480;-71
2021/05/17 02:04:20;;;;;;;3.87;2.40;;;10.90;1.00;;;;;;5078063;27;20464;-72
2021/05/17 02:06:47;;;;;;;3.30;1.90;;;10.80;1.00;;;;;;5095832;27;20185;-71
2021/05/17 02:09:15;;;;;;;6.90;2.40;;;11.00;1.00;;;;;;5081572;27;20938;-71
2021/05/17 02:11:41;;;;;;;4.17;2.27;;;11.10;1.00;;;;;;5074545;27;20442;-71
2021/05/17 02:14:29;;;;;;;3.13;2.20;;;10.90;1.00;;;;;;5079721;27;20966;-72
2021/05/17 02:16:55;;;;;;;2.43;1.97;;;11.10;1.00;;;;;;5077813;27;20442;-72
2021/05/17 02:19:23;;;;;;;7.10;2.50;;;10.90;1.00;;;;;;5080393;27;20433;-72
2021/05/17 02:21:50;;;;;;;4.67;2.47;;;11.30;1.00;;;;;;5097304;27;21918;-72
2021/05/17 02:24:16;;;;;;;3.13;2.27;;;11.00;1.00;;;;;;5097146;27;20878;-72
2021/05/17 02:26:42;;;;;;;2.00;1.80;;;11.40;1.00;;;;;;5100604;27;20525;-72
2021/05/17 02:29:12;;;;;;;4.20;2.20;;;11.40;1.00;;;;;;5091947;27;20180;-72
2021/05/17 02:31:38;;;;;;;2.50;2.30;;;11.20;1.00;;;;;;5096525;27;21076;-73
2021/05/17 02:34:04;;;;;;;3.30;2.10;;;11.10;1.00;;;;;;5077187;27;20488;-72
2021/05/17 02:36:31;;;;;;;3.00;2.30;;;11.20;1.00;;;;;;5099167;27;20446;-73
2021/05/17 02:38:58;;;;;;;4.77;2.27;;;11.00;1.00;;;;;;5081471;27;20438;-72
2021/05/17 02:41:27;;;;;;;5.40;2.73;;;11.10;1.00;;;;;;5082352;27;20442;-72
2021/05/17 02:43:57;;;;;;;4.57;3.17;;;11.30;1.00;;;;;;5083489;27;20783;-72
2021/05/17 02:46:25;;;;;;;3.80;2.90;;;11.00;1.00;;;;;;5087543;27;20472;-72
2021/05/17 02:48:54;;;;;;;5.00;3.23;;;11.10;1.00;;;;;;5093853;27;20469;-72
2021/05/17 02:51:20;;;;;;;3.70;3.17;;;10.90;1.00;;;;;;5111209;27;20579;-72
2021/05/17 02:54:07;;;;;;;3.50;3.20;;;10.70;1.00;;;;;;5114057;27;20981;-72
2021/05/17 02:56:36;;;;;;;5.07;2.70;;;10.80;1.00;;;;;;5095085;27;20192;-72
2021/05/17 02:59:05;;;;;;;5.30;2.90;;;11.20;1.00;;;;;;5083209;27;20534;-72
2021/05/17 03:01:41;;;;;;;3.27;2.80;;;11.50;1.00;;;;;;5070241;27;20437;-72
2021/05/17 03:04:18;;;;;;;4.00;2.90;;;11.50;1.00;;;;;;5079184;27;20456;-73
2021/05/17 03:07:04;;;;;;;3.03;2.50;;;11.10;1.00;;;;;;5094643;27;20440;-72
2021/05/17 03:09:32;;;;;;;3.57;3.07;;;11.20;1.00;;;;;;5084834;27;20457;-72
2021/05/17 03:12:02;;;;;;;2.70;2.27;;;11.30;1.00;;;;;;5100554;27;20429;-72
2021/05/17 03:14:31;;;;;;;2.57;2.37;;;11.10;1.00;;;;;;5102502;27;20437;-72
2021/05/17 03:17:03;;;;;;;5.13;3.40;;;11.00;1.00;;;;;;5077426;27;20450;-72
2021/05/17 03:19:31;;;;;;;3.10;2.40;;;10.90;1.00;;;;;;5074564;27;20481;-72
2021/05/17 03:22:00;;;;;;;3.60;2.43;;;11.10;1.00;;;;;;5095408;27;20859;-72
2021/05/17 03:24:28;;;;;;;8.17;2.93;;;10.90;1.00;;;;;;5102873;27;20476;-72
2021/05/17 03:26:57;;;;;;;5.90;2.67;;;11.00;1.00;;;;;;5100520;27;20521;-71
2021/05/17 03:29:23;;;;;;;4.30;2.63;;;10.90;1.00;;;;;;5100734;27;20446;-71
2021/05/17 03:31:49;;;;;;;4.00;2.80;;;10.80;1.00;;;;;;5101666;27;20574;-71
2021/05/17 03:34:14;;;;;;;4.20;2.20;;;10.80;1.00;;;;;;5095444;27;20311;-71
2021/05/17 03:36:40;;;;;;;4.20;2.40;;;10.70;1.00;;;;;;5099737;27;20633;-72
2021/05/17 03:39:06;;;;;;;4.30;2.50;;;10.70;1.00;;;;;;5096782;27;20177;-72
2021/05/17 03:41:32;;;;;;;5.67;2.63;;;10.80;1.00;;;;;;5096129;27;20219;-72
2021/05/17 03:43:57;;;;;;;2.53;2.33;;;10.80;1.00;;;;;;5096535;27;20458;-72
2021/05/17 03:46:23;;;;;;;3.13;2.10;;;11.40;1.00;;;;;;5081455;27;20633;-72
2021/05/17 03:48:49;;;;;;;1.80;1.67;;;11.40;1.00;;;;;;5097685;27;21186;-72
2021/05/17 03:51:15;;;;;;;3.17;2.17;;;11.10;1.00;;;;;;5097592;27;20183;-72
2021/05/17 03:53:40;;;;;;;5.50;2.10;;;11.00;1.00;;;;;;5098987;27;20470;-72
2021/05/17 03:56:06;;;;;;;3.77;2.10;;;11.00;1.00;;;;;;5099569;27;20223;-72
2021/05/17 03:58:32;;;;;;;4.00;2.17;;;11.10;1.00;;;;;;5098659;27;20186;-72
2021/05/17 04:00:59;;;;;;;3.60;1.97;;;11.10;1.00;;;;;;5101488;27;20546;-72
2021/05/17 04:03:25;;;;;;;4.87;2.33;;;10.90;1.00;;;;;;5102171;27;20196;-72
2021/05/17 04:13:33;;;;;;;4.13;1.50;;;10.90;1.00;;;;;;5076891;27;20176;-72
2021/05/17 04:15:58;;;;;;;3.00;2.13;;;10.80;1.00;;;;;;5094244;27;20464;-72
2021/05/17 04:18:24;;;;;;;4.03;2.43;;;11.20;1.00;;;;;;5095853;27;20191;-72
2021/05/17 04:20:51;;;;;;;5.20;2.27;;;11.20;1.00;;;;;;5097745;27;20190;-72
2021/05/17 04:23:26;;;;;;;17.73;2.60;;;11.00;1.00;;;;;;5096647;27;21034;-72
2021/05/17 04:25:52;;;;;;;8.07;2.43;;;10.90;1.00;;;;;;5084098;27;21276;-71
2021/05/17 04:28:19;;;;;;;6.17;2.03;;;11.00;1.00;;;;;;5099193;27;20440;-72
2021/05/17 04:30:45;;;;;;;5.20;2.30;;;11.20;1.00;;;;;;5098294;27;20445;-72
2021/05/17 04:33:11;;;;;;;3.70;2.17;;;11.20;1.00;;;;;;5100846;27;20663;-72
2021/05/17 04:35:36;;;;;;;6.60;2.07;;;11.20;1.00;;;;;;5099305;27;20456;-72
2021/05/17 04:38:02;;;;;;;5.57;2.37;;;11.00;1.00;;;;;;5082676;27;20211;-72
2021/05/17 04:40:29;;;;;;;3.37;2.20;;;10.90;1.00;;;;;;5102186;27;20210;-72
2021/05/17 04:42:55;;;;;;;11.33;2.47;;;10.50;1.00;;;;;;5101398;27;20185;-73
2021/05/17 04:45:23;;;;;;;6.30;2.70;;;10.40;66.10;;;;;;5106075;27;20477;-73
2021/05/17 04:47:50;;;;;;;3.73;2.27;;;10.20;99.90;;;;;;5103777;27;20188;-72
2021/05/17 04:50:15;;;;;;;2.60;2.40;;;10.00;99.90;;;;;;5109041;27;20464;-72
2021/05/17 04:52:41;;;;;;;4.70;2.90;;;10.00;1.00;;;;;;5104286;27;20469;-72
2021/05/17 04:55:08;;;;;;;6.57;3.23;;;10.00;1.00;;;;;;5098504;27;20220;-72
2021/05/17 04:57:34;;;;;;;3.70;2.33;;;10.00;99.90;;;;;;5103389;27;20188;-72
2021/05/17 04:59:59;;;;;;;5.93;3.03;;;10.00;1.00;;;;;;5105908;27;20728;-72
2021/05/17 05:02:25;;;;;;;5.10;2.60;;;10.00;1.00;;;;;;5104109;27;20650;-73
2021/05/17 05:04:51;;;;;;;6.80;3.50;;;10.00;99.90;;;;;;5099817;27;20205;-72
2021/05/17 05:07:19;;;;;;;4.93;2.60;;;9.90;99.90;;;;;;5094038;27;20607;-73
2021/05/17 05:09:44;;;;;;;3.60;2.80;;;9.90;99.90;;;;;;5104974;27;20442;-72
2021/05/17 05:12:10;;;;;;;5.13;3.00;;;9.90;99.90;;;;;;5099821;27;20473;-73
2021/05/17 05:14:36;;;;;;;4.73;2.47;;;9.90;99.90;;;;;;5079745;27;20192;-72
2021/05/17 05:17:01;;;;;;;10.13;3.60;;;9.90;99.90;;;;;;5104284;27;20194;-73
2021/05/17 05:19:27;;;;;;;3.57;3.27;;;9.90;99.90;;;;;;5079864;27;20284;-73
2021/05/17 05:21:53;;;;;;;6.53;3.10;;;10.00;99.90;;;;;;5099406;27;20189;-72
2021/05/17 05:24:19;;;;;;;4.23;2.97;;;10.10;99.90;;;;;;5098250;27;20193;-72
2021/05/17 05:29:37;;;;;;;4.27;3.00;;;10.10;99.90;;;;;;5099614;27;20485;-73
2021/05/17 05:34:45;;;;;;;4.40;2.93;;;10.00;99.90;;;;;;5090315;27;21059;-73
2021/05/17 05:37:10;;;;;;;3.13;2.83;;;10.00;99.90;;;;;;5093111;27;21161;-73
2021/05/17 05:39:36;;;;;;;4.37;3.07;;;9.90;99.90;;;;;;5096564;27;20537;-72
2021/05/17 05:42:02;;;;;;;5.50;3.57;;;10.00;99.90;;;;;;5096079;27;20201;-73
2021/05/17 05:44:28;;;;;;;8.60;3.93;;;10.00;99.90;;;;;;5098280;27;20779;-72
2021/05/17 05:46:53;;;;;;;5.90;3.20;;;10.10;99.90;;;;;;5080045;27;20453;-72
2021/05/17 05:49:22;;;;;;;7.00;2.80;;;10.10;99.90;;;;;;5091461;27;20737;-72
2021/05/17 05:51:48;;;;;;;5.67;3.30;;;10.20;99.90;;;;;;5090791;27;20572;-73
2021/05/17 05:54:14;;;;;;;4.73;3.00;;;10.20;99.90;;;;;;5095566;27;20439;-72
2021/05/17 05:56:39;;;;;;;6.03;3.33;;;10.30;99.90;;;;;;5095767;27;20204;-73
2021/05/17 05:59:05;;;;;;;8.00;3.50;;;10.20;99.90;;;;;;5098807;27;20440;-72
2021/05/17 06:01:31;;;;;;;5.23;2.83;;;10.30;99.90;;;;;;5097085;27;20708;-73
2021/05/17 06:03:56;;;;;;;5.27;2.83;;;10.30;99.90;;;;;;5079810;27;20695;-73
2021/05/17 06:06:22;;;;;;;7.47;3.20;;;10.30;99.90;;;;;;5100740;27;20589;-73
2021/05/17 06:08:48;;;;;;;8.93;3.70;;;10.40;99.90;;;;;;5103759;27;20188;-72
2021/05/17 06:11:14;;;;;;;4.90;3.57;;;10.50;99.90;;;;;;5115107;27;20200;-72
2021/05/17 06:13:41;;;;;;;9.27;3.50;;;10.50;99.90;;;;;;5119421;27;20189;-73
2021/05/17 06:16:08;;;;;;;9.13;3.30;;;10.30;99.90;;;;;;5093639;27;20207;-72
2021/05/17 06:18:35;;;;;;;6.17;2.97;;;10.20;99.90;;;;;;5084911;27;20458;-71
2021/05/17 06:21:01;;;;;;;3.60;2.80;;;10.30;99.90;;;;;;5089816;27;20594;-72
2021/05/17 06:23:28;;;;;;;5.63;3.33;;;10.30;99.90;;;;;;5090383;27;20430;-72
2021/05/17 06:25:54;;;;;;;9.43;3.37;;;10.40;99.90;;;;;;5098930;27;20845;-72
2021/05/17 06:28:23;;;;;;;8.37;3.03;;;10.40;99.90;;;;;;5103707;27;20473;-71
2021/05/17 06:30:52;;;;;;;7.83;2.80;;;10.40;99.90;;;;;;5102342;27;20442;-72
2021/05/17 06:33:19;;;;;;;7.07;3.00;;;10.40;99.90;;;;;;5097013;27;21444;-72
2021/05/17 06:35:46;;;;;;;7.73;3.30;;;10.60;99.90;;;;;;5098682;27;22294;-71
2021/05/17 06:38:14;;;;;;;4.60;3.00;;;10.70;99.90;;;;;;5097756;27;20449;-71
2021/05/17 06:40:40;;;;;;;6.40;3.43;;;10.90;99.90;;;;;;5092541;27;20464;-72
2021/05/17 06:43:06;;;;;;;4.10;2.97;;;11.00;99.90;;;;;;5097480;27;20948;-72
2021/05/17 06:45:32;;;;;;;5.93;3.50;;;11.10;99.90;;;;;;5103232;27;20469;-73
2021/05/17 06:47:59;;;;;;;7.20;3.33;;;11.20;99.90;;;;;;5099148;27;20181;-72
2021/05/17 06:50:25;;;;;;;5.50;3.50;;;11.10;99.90;;;;;;5095802;27;20445;-73
2021/05/17 06:52:52;;;;;;;4.90;3.30;;;11.10;99.90;;;;;;5102444;27;20464;-72
2021/05/17 06:55:23;;;;;;;4.77;3.07;;;11.20;99.90;;;;;;5095995;27;20939;-72
2021/05/17 07:00:28;;;;;;;3.53;2.40;;;11.10;99.90;;;;;;5098094;27;21078;-73
2021/05/17 07:02:59;;;;;;;4.57;2.63;;;11.10;99.90;;;;;;5094579;27;20563;-73
2021/05/17 07:05:25;;;;;;;3.87;2.70;;;11.10;99.90;;;;;;5104252;27;20505;-73
2021/05/17 07:13:16;;;;;;;7.77;2.40;;;11.20;99.90;;;;;;5094651;27;20429;-72
2021/05/17 07:15:42;;;;;;;4.83;2.33;;;11.20;99.90;;;;;;5092512;27;21776;-72
2021/05/17 07:18:08;;;;;;;4.17;2.70;;;11.20;99.90;;;;;;5095041;27;20533;-72
2021/05/17 07:23:41;;;;;;;6.73;2.63;;;11.30;99.90;;;;;;5065296;27;20533;-73
2021/05/17 07:26:36;;;;;;;5.20;3.30;;;11.30;99.90;;;;;;5097969;27;20541;-72
2021/05/17 07:29:03;;;;;;;10.10;3.60;;;11.40;99.90;;;;;;5090207;27;20486;-72
2021/05/17 07:31:29;;;;;;;4.53;3.27;;;11.70;99.90;;;;;;5088326;27;21040;-72
2021/05/17 07:33:55;;;;;;;9.93;2.93;;;11.90;99.90;;;;;;5085322;27;20491;-72
2021/05/17 07:36:20;;;;;;;5.43;3.00;;;11.90;99.90;;;;;;5081688;27;20454;-73
2021/05/17 07:38:46;;;;;;;6.80;3.00;;;11.90;99.90;;;;;;5086975;27;20272;-72
2021/05/17 07:41:14;;;;;;;9.20;3.87;;;11.90;99.90;;;;;;5061627;27;20202;-72
2021/05/17 07:43:39;;;;;;;6.13;2.77;;;11.90;99.90;;;;;;5081411;27;20514;-72
2021/05/17 07:46:05;;;;;;;6.10;2.80;;;11.90;99.90;;;;;;5083557;27;21050;-71
2021/05/17 07:48:31;;;;;;;6.13;2.40;;;12.20;99.90;;;;;;5088732;27;20854;-72
2021/05/17 07:50:57;;;;;;;4.47;2.57;;;12.40;99.90;;;;;;5087989;27;20187;-72
2021/05/17 07:53:22;;;;;;;4.70;2.77;;;12.40;99.90;;;;;;5089353;27;20181;-72
2021/05/17 07:55:51;;;;;;;6.17;3.07;;;12.40;99.90;;;;;;5086903;27;21135;-72
2021/05/17 07:58:17;;;;;;;5.77;2.43;;;12.30;99.90;;;;;;5073119;27;20198;-72
2021/05/17 08:00:43;;;;;;;6.20;3.07;;;12.50;99.90;;;;;;5087057;27;20612;-72
2021/05/17 08:03:09;;;;;;;6.80;3.07;;;12.20;56.90;;;;;;5091991;27;20254;-72
2021/05/17 08:05:35;;;;;;;3.80;2.70;;;12.20;93.00;;;;;;5087235;27;20481;-72
2021/05/17 08:08:01;;;;;;;7.13;3.17;;;12.30;99.90;;;;;;5086820;27;20601;-72
2021/05/17 08:10:27;;;;;;;3.30;2.93;;;12.30;99.90;;;;;;5088890;27;20180;-72
2021/05/17 08:12:53;;;;;;;5.40;2.83;;;12.30;99.90;;;;;;5094513;27;20518;-72
2021/05/17 08:15:19;;;;;;;12.00;3.20;;;12.50;44.20;;;;;;5088481;27;20768;-72
2021/05/17 08:17:45;;;;;;;5.60;3.67;;;12.70;58.30;;;;;;5083364;27;20798;-73
2021/05/17 08:20:11;;;;;;;6.13;2.83;;;12.90;99.90;;;;;;5092279;27;20891;-72
2021/05/17 08:22:37;;;;;;;4.57;2.63;;;13.00;1.00;;;;;;5088518;27;20216;-73
2021/05/17 08:25:05;;;;;;;8.63;3.07;;;13.10;27.20;;;;;;5083533;27;20480;-73
2021/05/17 08:27:30;;;;;;;4.33;2.77;;;13.10;1.00;;;;;;5066201;27;20649;-72
2021/05/17 08:29:56;;;;;;;3.00;2.33;;;13.30;20.60;;;;;;5083933;27;20477;-72
2021/05/17 08:32:22;;;;;;;3.13;2.30;;;13.40;14.40;;;;;;5098323;27;20434;-72
2021/05/17 08:34:48;;;;;;;2.60;2.23;;;13.60;1.00;;;;;;5089473;27;20177;-72
2021/05/17 08:37:14;;;;;;;3.63;2.40;;;13.60;1.00;;;;;;5099060;27;20622;-73
2021/05/17 08:39:40;;;;;;;7.27;2.47;;;13.80;1.00;;;;;;5109960;27;20193;-72
2021/05/17 08:42:06;;;;;;;6.30;2.63;;;13.90;1.00;;;;;;5104492;27;20200;-72
2021/05/17 08:44:35;;;;;;;6.57;1.90;;;14.00;1.00;;;;;;5086702;27;20474;-72
2021/05/17 08:47:01;;;;;;;4.90;2.33;;;14.20;1.00;;;;;;5074127;27;20482;-73
2021/05/17 08:49:27;;;;;;;3.60;1.80;;;14.00;1.00;;;;;;5100903;27;20442;-72
2021/05/17 08:51:53;;;;;;;4.50;2.57;;;13.60;1.00;;;;;;5096409;27;20979;-73
2021/05/17 08:54:18;;;;;;;5.00;2.30;;;13.60;1.00;;;;;;5093917;27;20196;-72
2021/05/17 08:56:46;;;;;;;3.53;3.10;;;13.40;1.00;;;;;;5068383;27;20208;-72
2021/05/17 08:59:19;;;;;;;2.47;1.73;;;13.50;1.00;;;;;;5094852;27;20232;-72
2021/05/17 09:01:46;;;;;;;4.23;1.60;;;13.30;1.00;;;;;;5082909;27;20461;-73
2021/05/17 09:04:15;;;;;;;3.43;2.17;;;13.20;1.00;;;;;;5083696;27;20494;-73
2021/05/17 09:06:55;;;;;;;5.10;1.87;;;13.20;1.00;;;;;;5087108;27;20846;-72
2021/05/17 09:09:37;;;;;;;2.77;2.30;;;13.20;1.00;;;;;;5087557;27;20437;-72
2021/05/17 09:12:05;;;;;;;3.70;1.90;;;13.20;1.00;;;;;;5090252;27;20566;-72
2021/05/17 09:14:32;;;;;;;3.63;2.13;;;13.00;1.00;;;;;;5085945;27;20449;-73
2021/05/17 09:17:09;;;;;;;4.77;2.10;;;13.00;1.00;;;;;;5088512;27;20450;-74
2021/05/17 09:19:37;;;;;;;3.13;2.00;;;12.80;1.00;;;;;;5087269;27;20449;-73
2021/05/17 09:22:18;;;;;;;4.33;1.73;;;12.70;1.00;;;;;;5084401;27;20479;-74
2021/05/17 09:24:48;;;;;;;2.37;2.00;;;12.40;1.00;;;;;;5085546;27;20475;-73
2021/05/17 09:27:25;;;;;;;5.20;2.33;;;12.30;1.00;;;;;;5088516;27;20468;-73
2021/05/17 09:29:54;;;;;;;2.93;2.00;;;12.20;1.00;;;;;;5100901;27;20457;-74
2021/05/17 09:32:28;;;;;;;9.13;2.50;;;12.10;1.00;;;;;;5099381;27;20485;-73
2021/05/17 09:35:01;;;;;;;6.53;2.40;;;12.40;26.00;;;;;;5074744;27;20474;-73
2021/05/17 09:37:27;;;;;;;7.33;2.13;;;12.70;23.00;;;;;;5101761;27;20460;-73
2021/05/17 09:39:54;;;;;;;3.03;1.73;;;12.50;15.80;;;;;;5094408;27;20496;-72
2021/05/17 09:42:24;;;;;;;5.50;1.97;;;12.30;28.10;;;;;;5089825;27;20461;-72
2021/05/17 09:44:53;;;;;;;2.47;1.70;;;12.20;99.90;;;;;;5099859;27;20484;-72
2021/05/17 09:47:20;;;;;;;3.33;1.90;;;12.10;82.70;;;;;;5093048;27;20449;-73
2021/05/17 09:49:50;;;;;;;4.07;2.10;;;12.10;99.40;;;;;;5090485;27;20469;-73
2021/05/17 09:52:22;;;;;;;6.70;2.13;;;12.20;99.90;;;;;;5089725;27;20787;-74
2021/05/17 09:54:47;;;;;;;5.77;2.20;;;12.40;99.90;;;;;;5086918;27;21259;-73
2021/05/17 09:57:40;;;;;;;3.83;1.70;;;12.30;97.50;;;;;;5089660;27;20479;-75
2021/05/17 10:00:14;;;;;;;3.53;2.30;;;12.20;58.70;;;;;;5082592;27;20204;-73
2021/05/17 10:02:41;;;;;;;7.40;1.87;;;12.10;99.90;;;;;;5089567;27;20503;-74
2021/05/17 10:05:20;;;;;;;3.50;1.80;;;11.90;89.60;;;;;;5078874;27;20489;-74
2021/05/17 10:07:49;;;;;;;4.30;2.03;;;12.10;99.90;;;;;;5087092;27;20513;-74
2021/05/17 10:10:16;;;;;;;3.10;1.83;;;12.70;99.90;;;;;;5087415;27;20463;-74
2021/05/17 10:12:42;;;;;;;3.20;1.43;;;12.90;1.00;;;;;;5082640;27;20540;-73
2021/05/17 10:15:11;;;;;;;4.93;1.90;;;13.40;3.10;;;;;;5088612;27;22329;-73
2021/05/17 10:17:38;;;;;;;4.17;1.60;;;13.80;31.70;;;;;;5083704;27;20478;-74
2021/05/17 10:20:08;;;;;;;2.20;1.67;;;14.10;1.00;;;;;;5093957;27;20487;-74
2021/05/17 10:22:34;;;;;;;2.10;1.70;;;14.10;1.00;;;;;;5094583;27;20457;-74
2021/05/17 10:25:04;;;;;;;2.57;1.73;;;13.90;1.00;;;;;;5094743;27;20495;-74
2021/05/17 10:27:32;;;;;;;2.53;1.53;;;14.10;1.00;;;;;;5095888;27;20522;-74
2021/05/17 10:30:01;;;;;;;3.37;1.80;;;14.40;1.00;;;;;;5072413;27;20850;-74
2021/05/17 10:32:45;;;;;;;3.90;1.70;;;14.60;1.00;;;;;;5093780;27;20453;-74
2021/05/17 10:35:20;;;;;;;2.83;1.20;;;14.70;1.00;;;;;;5074959;27;20962;-74
2021/05/17 10:37:47;;;;;;;3.23;1.20;;;14.50;1.00;;;;;;5101261;27;20459;-75
2021/05/17 10:40:37;;;;;;;3.97;1.20;;;14.40;1.00;;;;;;5106482;27;20481;-74
2021/05/17 10:43:24;;;;;;;3.53;1.37;;;14.30;1.00;;;;;;5109150;27;20513;-74
2021/05/17 10:48:51;;;;;;;2.37;1.20;;;15.30;1.00;;;;;;5095334;27;20453;-74
2021/05/17 10:51:19;;;;;;;3.03;1.97;;;15.60;1.00;;;;;;5071688;27;20980;-74
2021/05/17 10:53:58;;;;;;;3.03;1.77;;;15.70;1.00;;;;;;5090602;27;20630;-74
2021/05/17 10:56:57;;;;;;;4.10;1.70;;;15.90;1.00;;;;;;5100781;27;20464;-74
2021/05/17 11:02:20;;;;;;;6.37;1.43;;;15.60;1.00;;;;;;5100652;27;20441;-74
2021/05/17 11:04:49;;;;;;;2.57;1.47;;;14.80;1.00;;;;;;5098463;27;20924;-75
2021/05/17 11:07:20;;;;;;;2.60;1.50;;;14.20;1.00;;;;;;5102891;27;20843;-74
2021/05/17 11:10:10;;;;;;;3.53;1.10;;;13.40;1.00;;;;;;5103225;27;20434;-73
2021/05/17 11:12:51;;;;;;;2.17;1.10;;;12.60;1.00;;;;;;5092554;27;21049;-74
2021/05/17 11:15:20;;;;;;;1.63;1.07;;;12.30;25.20;;;;;;5092165;27;20451;-74
2021/05/17 11:17:54;;;;;;;1.20;0.77;;;12.00;99.90;;;;;;5096912;27;20452;-74
2021/05/17 11:20:42;;;;;;;2.13;1.00;;;11.90;99.90;;;;;;5094317;27;20854;-74
2021/05/17 11:23:17;;;;;;;1.47;1.00;;;11.90;99.90;;;;;;5103635;27;20983;-74
2021/05/17 11:25:56;;;;;;;1.57;0.70;;;12.00;1.00;;;;;;5094932;27;20471;-74
2021/05/17 11:28:43;;;;;;;2.73;0.90;;;12.10;99.90;;;;;;5096343;27;20453;-74
2021/05/17 11:31:16;;;;;;;1.43;0.97;;;12.30;99.90;;;;;;5084908;27;20517;-74
2021/05/17 11:33:48;;;;;;;1.67;1.00;;;12.40;99.90;;;;;;5096077;27;20438;-74
2021/05/17 11:36:15;;;;;;;2.37;1.20;;;12.70;99.90;;;;;;5101064;27;20873;-74
2021/05/17 11:41:41;;;;;;;1.97;1.10;;;12.90;25.00;;;;;;5101666;27;20737;-74
2021/05/17 11:44:09;;;;;;;1.83;0.90;;;12.80;60.10;;;;;;5101416;27;20986;-74
2021/05/17 11:46:38;;;;;;;2.10;1.00;;;12.60;1.00;;;;;;5100271;27;21017;-74
2021/05/17 11:49:05;;;;;;;2.30;1.13;;;12.40;1.00;;;;;;5082846;27;20598;-74
2021/05/17 11:51:31;;;;;;;5.53;1.40;;;12.20;1.00;;;;;;5099517;27;20451;-74
2021/05/17 11:53:58;;;;;;;1.27;0.93;;;12.10;33.60;;;;;;5099912;27;20453;-73
2021/05/17 11:56:37;;;;;;;2.07;1.50;;;12.10;99.90;;;;;;5100605;27;20473;-73
2021/05/17 11:59:30;;;;;;;2.03;1.23;;;12.00;99.90;;;;;;5097499;27;21010;-73
2021/05/17 12:02:10;;;;;;;3.07;1.50;;;12.00;99.90;;;;;;5098055;27;20638;-73
2021/05/17 12:04:42;;;;;;;5.30;1.40;;;11.90;99.90;;;;;;5099961;27;20900;-73
2021/05/17 12:07:17;;;;;;;3.30;1.73;;;11.90;99.90;;;;;;5102046;27;20555;-73
2021/05/17 12:09:52;;;;;;;5.20;2.17;;;12.00;99.90;;;;;;5105489;27;20473;-72
2021/05/17 12:12:19;;;;;;;1.63;1.37;;;12.10;99.90;;;;;;5085816;27;20436;-72
2021/05/17 12:14:47;;;;;;;2.90;1.20;;;12.20;99.90;;;;;;5097024;27;20440;-75
2021/05/17 12:17:14;;;;;;;5.10;1.30;;;12.20;99.90;;;;;;5075798;27;20533;-73
2021/05/17 12:19:42;;;;;;;2.27;1.50;;;12.10;99.90;;;;;;5105417;27;20450;-73
2021/05/17 12:22:09;;;;;;;1.70;1.20;;;12.10;99.90;;;;;;5098722;27;20794;-73
2021/05/17 12:24:35;;;;;;;3.57;1.33;;;12.20;99.90;;;;;;5101485;27;20985;-73
2021/05/17 12:27:07;;;;;;;3.53;1.50;;;12.40;99.90;;;;;;5082750;27;20525;-73
2021/05/17 12:29:53;;;;;;;1.33;1.07;;;12.60;99.90;;;;;;5101284;27;20442;-73
2021/05/17 12:32:21;;;;;;;1.83;0.73;;;12.70;8.90;;;;;;5100707;27;20520;-73
2021/05/17 12:34:58;;;;;;;1.27;0.87;;;12.90;43.80;;;;;;5106281;27;20499;-73
2021/05/17 12:37:27;;;;;;;1.37;1.00;;;12.70;1.00;;;;;;5099214;27;20458;-72
2021/05/17 12:40:28;;;;;;;2.10;1.60;;;12.50;1.00;;;;;;5107158;27;20874;-73
2021/05/17 12:43:17;;;;;;;2.27;1.20;;;12.20;11.80;;;;;;5006554;28;20477;-73
2021/05/17 12:45:44;;;;;;;1.10;1.00;;;12.10;61.00;;;;;;5078937;27;20565;-73
2021/05/17 12:48:19;;;;;;;1.57;0.90;;;11.80;99.90;;;;;;5101880;27;20908;-73
2021/05/17 12:50:47;;;;;;;2.50;0.80;;;11.70;99.90;;;;;;5093071;27;21542;-73
2021/05/17 12:53:18;;;;;;;1.83;1.40;;;11.70;1.00;;;;;;5092171;27;20438;-75
2021/05/17 12:55:46;;;;;;;2.57;1.30;;;11.60;1.00;;;;;;5092338;27;20438;-73
2021/05/17 12:58:13;;;;;;;2.57;1.43;;;11.50;1.00;;;;;;5090135;27;20454;-74
2021/05/17 13:00:58;;;;;;;2.77;2.13;;;11.40;1.00;;;;;;5109667;27;20464;-74
2021/05/17 13:03:27;;;;;;;3.07;1.90;;;11.40;99.90;;;;;;5102341;27;20452;-74
2021/05/17 13:05:58;;;;;;;5.47;2.57;;;11.40;1.00;;;;;;5100972;27;20498;-74
2021/05/17 13:08:36;;;;;;;3.57;2.37;;;11.60;1.00;;;;;;5103696;27;20499;-74
2021/05/17 13:11:10;;;;;;;2.60;1.97;;;11.70;99.90;;;;;;5088452;27;20446;-74
2021/05/17 13:13:45;;;;;;;5.20;2.30;;;11.80;99.90;;;;;;5100105;27;20996;-74
2021/05/17 13:16:21;;;;;;;4.20;2.20;;;11.80;99.90;;;;;;5103586;27;20527;-73
2021/05/17 13:30:56;;;;;;;6.20;2.83;;;12.10;99.90;;;;;;5101183;27;20446;-73
2021/05/17 13:33:30;;;;;;;5.37;3.20;;;12.20;99.90;;;;;;5099947;27;20471;-73
2021/05/17 13:36:24;;;;;;;4.80;3.03;;;12.30;99.90;;;;;;5092073;27;20586;-73
2021/05/17 13:38:52;;;;;;;3.80;3.10;;;12.30;99.90;;;;;;5072273;27;21749;-73
2021/05/17 13:41:20;;;;;;;4.73;3.33;;;12.60;99.90;;;;;;5105252;27;20554;-73
2021/05/17 13:43:47;;;;;;;5.10;3.27;;;12.60;99.90;;;;;;5101928;27;20450;-73
2021/05/17 13:46:13;;;;;;;7.93;3.70;;;12.50;99.90;;;;;;5101969;27;20556;-73
2021/05/17 13:48:48;;;;;;;3.30;2.77;;;12.40;99.90;;;;;;5096470;27;20894;-73